Time;durP1;ratioP1;P1;durP2;ratioP2;P2;SDS_P1;SDS_P2;PMS_P1;PMS_P2;Temp;Humidity;BMP_temperature;BMP_pressure;BME280_temperature;BME280_humidity;BME280_pressure;Samples;Min_cycle;Max_cycle;Signal;HPM_P1;HPM_P2
2021/08/26 00:06:19;;;;;;;0.10;0.10;;;13.40;99.90;;;;;;5030286;28;20033;-71
2021/08/26 00:08:46;;;;;;;0.25;0.10;;;13.40;99.90;;;;;;5030613;28;20046;-71
2021/08/26 00:11:16;;;;;;;0.20;0.10;;;13.40;99.90;;;;;;5028802;28;20053;-72
2021/08/26 00:13:45;;;;;;;0.20;0.10;;;13.40;99.90;;;;;;5030222;28;20095;-71
2021/08/26 00:16:20;;;;;;;1.05;0.20;;;13.40;99.90;;;;;;5030213;28;20045;-71
2021/08/26 00:18:48;;;;;;;1.50;0.20;;;13.40;99.90;;;;;;5030346;28;20053;-69
2021/08/26 00:21:15;;;;;;;0.45;0.08;;;13.40;99.90;;;;;;5028810;28;20069;-72
2021/08/26 00:23:42;;;;;;;0.75;0.13;;;13.40;99.90;;;;;;5030417;28;20053;-74
2021/08/26 00:26:10;;;;;;;0.52;0.10;;;13.40;99.90;;;;;;5030300;28;20065;-71
2021/08/26 00:28:37;;;;;;;0.52;0.10;;;13.40;99.90;;;;;;5030374;28;20084;-68
2021/08/26 00:31:04;;;;;;;0.50;0.10;;;13.40;99.90;;;;;;5030472;28;20080;-71
2021/08/26 00:33:31;;;;;;;0.38;0.25;;;13.40;99.90;;;;;;5028866;28;20415;-68
2021/08/26 00:35:58;;;;;;;0.10;0.10;;;13.40;99.90;;;;;;5030039;28;20444;-73
2021/08/26 00:38:25;;;;;;;2.22;0.22;;;13.40;99.90;;;;;;5030136;28;20349;-74
2021/08/26 00:40:53;;;;;;;1.25;0.30;;;13.40;99.90;;;;;;5029962;28;20529;-72
2021/08/26 00:43:21;;;;;;;0.90;0.40;;;13.40;99.90;;;;;;5028288;28;20107;-70
2021/08/26 00:45:50;;;;;;;0.05;0.00;;;13.40;99.90;;;;;;5028428;28;20420;-73
2021/08/26 00:48:20;;;;;;;0.75;0.30;;;13.40;99.90;;;;;;5029823;28;20123;-69
2021/08/26 00:50:50;;;;;;;0.03;0.03;;;13.40;99.90;;;;;;5030096;28;20431;-75
2021/08/26 00:53:17;;;;;;;2.20;0.10;;;13.40;99.90;;;;;;5028120;28;20472;-69
2021/08/26 00:55:44;;;;;;;0.13;0.00;;;13.40;99.90;;;;;;5029797;28;20458;-70
2021/08/26 00:58:11;;;;;;;1.88;0.85;;;13.40;99.90;;;;;;5029594;28;20088;-69
2021/08/26 01:00:42;;;;;;;0.75;0.10;;;13.40;99.90;;;;;;5029754;28;20073;-72
2021/08/26 01:06:30;;;;;;;0.47;0.10;;;13.40;99.90;;;;;;4173354;26;20112;-82
2021/08/26 01:09:07;;;;;;;0.77;0.40;;;13.30;99.90;;;;;;5022881;28;20620;-83
2021/08/26 01:11:41;;;;;;;0.30;0.10;;;13.40;99.90;;;;;;5018574;28;20041;-82
2021/08/26 01:14:12;;;;;;;0.40;0.10;;;13.30;99.90;;;;;;5006926;28;20054;-82
2021/08/26 01:16:39;;;;;;;;;;;13.30;99.90;;;;;;5017486;28;20044;-82
2021/08/26 01:19:10;;;;;;;0.10;0.10;;;13.30;99.90;;;;;;1404978;28;10022736;-82
2021/08/26 01:21:37;;;;;;;0.43;0.20;;;13.30;99.90;;;;;;3980399;28;10001370;-81
2021/08/26 01:24:11;;;;;;;0.20;0.10;;;13.30;99.90;;;;;;5010838;28;20044;-82
2021/08/26 01:26:44;;;;;;;0.00;0.00;;;13.30;99.90;;;;;;5020494;28;20048;-82
2021/08/26 01:29:12;;;;;;;0.85;0.13;;;13.30;99.90;;;;;;5023800;28;20046;-82
2021/08/26 01:31:40;;;;;;;0.38;0.10;;;13.30;99.90;;;;;;5004358;28;20049;-82
2021/08/26 01:34:07;;;;;;;0.47;0.10;;;13.30;99.90;;;;;;5009008;28;20046;-82
2021/08/26 01:36:36;;;;;;;0.03;0.03;;;13.30;99.90;;;;;;5008173;28;20112;-81
2021/08/26 01:39:07;;;;;;;0.55;0.55;;;13.30;99.90;;;;;;5006678;28;20108;-82
2021/08/26 01:41:55;;;;;;;0.40;0.10;;;13.30;99.90;;;;;;5018950;28;20446;-81
2021/08/26 01:44:24;;;;;;;0.10;0.10;;;13.30;99.90;;;;;;5019106;28;20498;-82
2021/08/26 01:47:04;;;;;;;0.55;0.20;;;13.30;99.90;;;;;;5007292;28;20041;-82
2021/08/26 01:49:31;;;;;;;0.30;0.10;;;13.30;99.90;;;;;;4990194;28;21455;-82
2021/08/26 01:51:58;;;;;;;0.00;0.00;;;13.30;99.90;;;;;;5003298;28;20160;-81
2021/08/26 01:54:25;;;;;;;0.00;0.00;;;13.30;99.90;;;;;;5006581;28;20152;-83
2021/08/26 01:56:52;;;;;;;0.28;0.20;;;13.30;99.90;;;;;;5007928;28;20507;-82
2021/08/26 01:59:19;;;;;;;0.13;0.13;;;13.30;99.90;;;;;;5022083;28;20046;-82
2021/08/26 02:01:46;;;;;;;1.50;0.15;;;13.30;99.90;;;;;;4987843;28;20491;-83
2021/08/26 02:04:13;;;;;;;0.10;0.10;;;13.30;99.90;;;;;;4992309;28;20521;-82
2021/08/26 02:06:40;;;;;;;0.20;0.20;;;13.30;99.90;;;;;;5004868;28;20517;-82
2021/08/26 02:09:07;;;;;;;4.22;1.17;;;13.30;99.90;;;;;;5009836;28;20057;-82
2021/08/26 02:11:34;;;;;;;0.30;0.17;;;13.30;99.90;;;;;;5005279;28;20120;-83
2021/08/26 02:14:01;;;;;;;0.55;0.03;;;13.20;99.90;;;;;;5008542;28;20057;-82
2021/08/26 02:16:28;;;;;;;0.13;0.00;;;13.30;99.90;;;;;;4993252;28;20533;-82
2021/08/26 02:18:55;;;;;;;0.55;0.55;;;13.30;99.90;;;;;;5008269;28;20437;-83
2021/08/26 02:21:22;;;;;;;0.20;0.10;;;13.30;99.90;;;;;;5012479;28;20161;-82
2021/08/26 02:23:53;;;;;;;0.70;0.30;;;13.30;99.90;;;;;;5006305;28;20100;-81
2021/08/26 02:26:20;;;;;;;0.20;0.10;;;13.20;99.90;;;;;;5003998;28;20119;-82
2021/08/26 02:28:47;;;;;;;0.50;0.38;;;13.20;99.90;;;;;;5005647;28;20108;-83
2021/08/26 02:31:14;;;;;;;0.32;0.17;;;13.20;99.90;;;;;;4999823;28;20050;-81
2021/08/26 02:33:41;;;;;;;0.17;0.10;;;13.30;99.90;;;;;;5018354;28;21741;-81
2021/08/26 02:36:08;;;;;;;1.77;0.43;;;13.20;99.90;;;;;;4988954;28;20070;-79
2021/08/26 02:38:35;;;;;;;1.13;0.50;;;13.20;99.90;;;;;;4989180;28;20057;-79
2021/08/26 02:41:02;;;;;;;0.17;0.15;;;13.20;99.90;;;;;;4998827;28;20632;-78
2021/08/26 02:43:29;;;;;;;0.08;0.08;;;13.20;99.90;;;;;;5001808;28;20062;-78
2021/08/26 02:45:56;;;;;;;1.05;0.10;;;13.20;99.90;;;;;;5017110;28;20164;-79
2021/08/26 02:48:23;;;;;;;1.38;0.77;;;13.20;99.90;;;;;;4994119;28;20585;-79
2021/08/26 02:50:50;;;;;;;0.60;0.10;;;13.20;99.90;;;;;;4999121;28;20641;-79
2021/08/26 02:53:17;;;;;;;0.10;0.10;;;13.30;99.90;;;;;;5000601;28;20068;-79
2021/08/26 02:55:44;;;;;;;0.32;0.05;;;13.30;99.90;;;;;;5018736;28;20046;-79
2021/08/26 02:58:12;;;;;;;0.10;0.10;;;13.30;99.90;;;;;;5007472;28;20042;-80
2021/08/26 03:00:39;;;;;;;4.82;0.75;;;13.20;99.90;;;;;;5009068;28;20046;-81
2021/08/26 03:03:06;;;;;;;1.80;0.25;;;13.20;99.90;;;;;;5020479;28;20045;-80
2021/08/26 03:05:33;;;;;;;0.10;0.10;;;13.20;99.90;;;;;;4997699;28;20061;-81
2021/08/26 03:08:01;;;;;;;0.10;0.10;;;13.20;99.90;;;;;;5005702;28;20053;-81
2021/08/26 03:10:28;;;;;;;0.75;0.00;;;13.30;99.90;;;;;;5002498;28;20412;-79
2021/08/26 03:12:56;;;;;;;1.40;0.13;;;13.20;99.90;;;;;;5007546;28;20497;-80
2021/08/26 03:15:23;;;;;;;0.40;0.10;;;13.30;99.90;;;;;;5003215;28;20053;-80
2021/08/26 03:17:50;;;;;;;0.60;0.20;;;13.20;99.90;;;;;;4982320;28;20060;-80
2021/08/26 03:20:20;;;;;;;0.10;0.10;;;13.20;99.90;;;;;;1312288;28;10002253;-81
2021/08/26 03:22:48;;;;;;;0.10;0.10;;;13.20;99.90;;;;;;5008211;28;20046;-80
2021/08/26 03:25:15;;;;;;;0.00;0.00;;;13.20;99.90;;;;;;5000854;28;20054;-80
2021/08/26 03:27:42;;;;;;;0.30;0.10;;;13.10;99.90;;;;;;5002857;28;20046;-81
2021/08/26 03:30:12;;;;;;;0.47;0.10;;;13.10;99.90;;;;;;5006762;28;20062;-81
2021/08/26 03:32:39;;;;;;;0.47;0.00;;;13.10;99.90;;;;;;5002452;28;20045;-80
2021/08/26 03:35:07;;;;;;;0.20;0.20;;;13.10;99.90;;;;;;5022810;28;20458;-80
2021/08/26 03:37:34;;;;;;;1.02;0.10;;;13.10;99.90;;;;;;4988862;28;20448;-81
2021/08/26 03:40:01;;;;;;;0.40;0.03;;;13.10;99.90;;;;;;4996959;28;20105;-80
2021/08/26 03:42:28;;;;;;;0.30;0.03;;;13.10;99.90;;;;;;4980259;28;20062;-80
2021/08/26 03:44:55;;;;;;;2.17;0.28;;;13.10;99.90;;;;;;5001205;28;20042;-80
2021/08/26 03:47:22;;;;;;;0.10;0.10;;;13.00;99.90;;;;;;4998554;28;20056;-77
2021/08/26 03:49:49;;;;;;;2.53;0.28;;;13.00;99.90;;;;;;5015287;28;20089;-78
2021/08/26 03:52:15;;;;;;;1.52;0.20;;;13.00;99.90;;;;;;5017948;28;20046;-78
2021/08/26 03:54:42;;;;;;;0.05;0.05;;;13.00;99.90;;;;;;5015870;28;20098;-77
2021/08/26 03:57:09;;;;;;;2.22;0.28;;;13.00;99.90;;;;;;5002875;28;20053;-77
2021/08/26 03:59:36;;;;;;;0.17;0.08;;;13.00;99.90;;;;;;5012471;28;20608;-77
2021/08/26 04:02:03;;;;;;;0.10;0.10;;;13.00;99.90;;;;;;5016549;28;20100;-77
2021/08/26 04:04:31;;;;;;;0.17;0.10;;;13.00;99.90;;;;;;5011824;28;20050;-77
2021/08/26 04:06:58;;;;;;;0.03;0.03;;;13.00;99.90;;;;;;5005159;28;20096;-78
2021/08/26 04:09:25;;;;;;;0.45;0.20;;;12.90;99.90;;;;;;4999299;28;20042;-77
2021/08/26 04:11:53;;;;;;;0.10;0.10;;;12.90;99.90;;;;;;5000082;28;20057;-78
2021/08/26 04:14:20;;;;;;;0.00;0.00;;;12.90;99.90;;;;;;4987811;28;20065;-78
2021/08/26 04:16:47;;;;;;;2.88;1.25;;;12.90;99.90;;;;;;5016785;28;20610;-78
2021/08/26 04:19:14;;;;;;;0.10;0.10;;;13.00;99.90;;;;;;4986526;28;20065;-77
2021/08/26 04:21:40;;;;;;;0.65;0.10;;;13.00;99.90;;;;;;5015117;28;20046;-78
2021/08/26 04:24:08;;;;;;;0.08;0.08;;;13.00;99.90;;;;;;5002219;28;20069;-78
2021/08/26 04:26:35;;;;;;;0.00;0.00;;;13.10;99.90;;;;;;4981600;28;20458;-78
2021/08/26 04:29:02;;;;;;;0.75;0.10;;;13.10;99.90;;;;;;5001914;28;20116;-77
2021/08/26 04:31:29;;;;;;;2.45;0.10;;;13.10;99.90;;;;;;4996015;28;20131;-77
2021/08/26 04:33:56;;;;;;;0.55;0.10;;;13.10;99.90;;;;;;5000675;28;20055;-77
2021/08/26 04:36:23;;;;;;;0.15;0.10;;;13.10;99.90;;;;;;5003378;28;20045;-77
2021/08/26 04:38:50;;;;;;;0.65;0.15;;;13.00;99.90;;;;;;5002101;28;20056;-78
2021/08/26 04:41:17;;;;;;;0.00;0.00;;;13.00;99.90;;;;;;4996370;28;20077;-79
2021/08/26 04:43:45;;;;;;;0.00;0.00;;;13.00;99.90;;;;;;5018917;28;20076;-80
2021/08/26 04:46:12;;;;;;;0.70;0.20;;;13.00;99.90;;;;;;5006798;28;20046;-81
2021/08/26 04:48:39;;;;;;;0.10;0.08;;;13.00;99.90;;;;;;5005732;28;20490;-80
2021/08/26 04:51:06;;;;;;;2.10;0.30;;;13.00;99.90;;;;;;5006456;28;20419;-79
2021/08/26 04:53:33;;;;;;;0.47;0.20;;;12.90;99.90;;;;;;5001225;28;20441;-80
2021/08/26 04:56:00;;;;;;;1.65;0.30;;;12.90;99.90;;;;;;5004036;28;20096;-81
2021/08/26 04:58:27;;;;;;;2.38;0.20;;;12.90;99.90;;;;;;4987451;28;20065;-80
2021/08/26 05:00:54;;;;;;;0.75;0.10;;;12.90;99.90;;;;;;5003746;28;20393;-80
2021/08/26 05:03:21;;;;;;;0.05;0.00;;;13.00;99.90;;;;;;5000257;28;20038;-81
2021/08/26 05:05:48;;;;;;;0.00;0.00;;;13.10;99.90;;;;;;5005651;28;20038;-80
2021/08/26 05:08:15;;;;;;;0.10;0.10;;;13.10;99.90;;;;;;5003746;28;20183;-80
2021/08/26 05:10:42;;;;;;;1.05;0.32;;;13.20;99.90;;;;;;4999434;28;20181;-79
2021/08/26 05:13:09;;;;;;;0.00;0.00;;;13.30;99.90;;;;;;4997241;28;20145;-80
2021/08/26 05:15:37;;;;;;;0.10;0.10;;;13.30;99.90;;;;;;4994099;28;20612;-80
2021/08/26 05:18:05;;;;;;;0.47;0.30;;;13.40;99.90;;;;;;5017361;28;20035;-79
2021/08/26 05:20:32;;;;;;;2.28;0.52;;;13.50;99.90;;;;;;4999142;28;20061;-79
2021/08/26 05:22:59;;;;;;;0.57;0.57;;;13.60;99.90;;;;;;5017800;28;20540;-81
2021/08/26 05:25:26;;;;;;;0.70;0.65;;;13.60;99.90;;;;;;4985568;28;20524;-79
2021/08/26 05:27:53;;;;;;;3.53;0.38;;;13.70;99.90;;;;;;4989525;28;20046;-80
2021/08/26 05:30:24;;;;;;;2.10;0.30;;;13.80;99.90;;;;;;4987059;28;20077;-80
2021/08/26 05:32:50;;;;;;;0.47;0.35;;;13.90;99.90;;;;;;5002435;28;20045;-80
2021/08/26 05:35:18;;;;;;;1.70;1.20;;;13.90;99.90;;;;;;4998769;28;20042;-80
2021/08/26 05:37:45;;;;;;;1.48;0.30;;;14.00;99.90;;;;;;5000111;28;20069;-80
2021/08/26 05:40:12;;;;;;;0.38;0.17;;;14.00;99.90;;;;;;5001466;28;20483;-80
2021/08/26 05:42:39;;;;;;;2.00;0.25;;;14.00;99.90;;;;;;4984625;28;20917;-80
2021/08/26 05:45:07;;;;;;;1.95;0.20;;;14.10;99.90;;;;;;5016544;28;20108;-80
2021/08/26 05:47:34;;;;;;;0.10;0.10;;;14.20;99.90;;;;;;5000281;28;20054;-80
2021/08/26 05:50:01;;;;;;;0.98;0.22;;;14.20;99.90;;;;;;5016667;28;20410;-80
2021/08/26 05:52:28;;;;;;;0.40;0.40;;;14.20;99.90;;;;;;5000890;28;20133;-80
2021/08/26 05:54:55;;;;;;;2.10;0.35;;;14.30;99.90;;;;;;5002119;28;20043;-79
2021/08/26 05:57:22;;;;;;;3.05;0.28;;;14.20;99.90;;;;;;5012691;28;20104;-79
2021/08/26 05:59:49;;;;;;;1.42;0.45;;;14.30;99.90;;;;;;5000849;28;20070;-80
2021/08/26 06:02:15;;;;;;;0.40;0.25;;;14.30;99.90;;;;;;5017823;28;20463;-80
2021/08/26 06:04:43;;;;;;;0.10;0.10;;;14.40;99.90;;;;;;5004341;28;20068;-80
2021/08/26 06:07:10;;;;;;;2.47;0.50;;;14.40;99.90;;;;;;5020960;28;20068;-80
2021/08/26 06:09:37;;;;;;;0.25;0.20;;;14.40;99.90;;;;;;5017790;28;20046;-79
2021/08/26 06:12:04;;;;;;;0.13;0.10;;;14.40;99.90;;;;;;5003433;28;20504;-78
2021/08/26 06:14:31;;;;;;;3.45;0.30;;;14.40;99.90;;;;;;5002638;28;20120;-79
2021/08/26 06:16:58;;;;;;;1.20;0.20;;;14.30;99.90;;;;;;5005704;28;20046;-78
2021/08/26 06:19:25;;;;;;;1.98;0.20;;;14.40;99.90;;;;;;5002799;28;20054;-79
2021/08/26 06:21:52;;;;;;;0.30;0.10;;;14.40;99.90;;;;;;5022866;28;20103;-79
2021/08/26 06:24:18;;;;;;;0.88;0.25;;;14.40;99.90;;;;;;5020583;28;20057;-79
2021/08/26 06:26:45;;;;;;;0.63;0.63;;;14.40;99.90;;;;;;5007171;28;20136;-79
2021/08/26 06:29:13;;;;;;;2.17;1.17;;;14.40;99.90;;;;;;4999678;28;20038;-78
2021/08/26 06:31:40;;;;;;;0.50;0.20;;;14.50;99.90;;;;;;5003300;28;20045;-79
2021/08/26 06:34:07;;;;;;;0.10;0.10;;;14.50;99.90;;;;;;5021391;28;20104;-79
2021/08/26 06:36:34;;;;;;;0.45;0.10;;;14.60;99.90;;;;;;4999148;28;20431;-79
2021/08/26 06:39:01;;;;;;;0.35;0.10;;;14.60;99.90;;;;;;5017054;28;20057;-78
2021/08/26 06:41:28;;;;;;;0.32;0.15;;;14.60;99.90;;;;;;5004715;28;20127;-79
2021/08/26 06:43:55;;;;;;;1.95;0.10;;;14.70;99.90;;;;;;5005439;28;20093;-79
2021/08/26 06:46:22;;;;;;;1.45;0.32;;;14.80;99.90;;;;;;5017768;28;20097;-78
2021/08/26 06:48:50;;;;;;;2.17;0.20;;;14.80;99.90;;;;;;5016045;28;20068;-79
2021/08/26 06:51:18;;;;;;;1.00;0.15;;;14.90;99.90;;;;;;5017009;28;20042;-79
2021/08/26 06:53:47;;;;;;;0.60;0.40;;;14.90;99.90;;;;;;5003702;28;20551;-79
2021/08/26 06:56:15;;;;;;;0.22;0.22;;;15.00;99.90;;;;;;5000935;28;20284;-79
2021/08/26 06:58:42;;;;;;;0.75;0.30;;;15.00;99.90;;;;;;4995886;28;20471;-79
2021/08/26 07:01:09;;;;;;;1.13;0.10;;;15.10;99.90;;;;;;5001347;28;20057;-79
2021/08/26 07:03:37;;;;;;;0.47;0.40;;;15.20;99.90;;;;;;5005734;28;20053;-80
2021/08/26 07:06:04;;;;;;;0.60;0.20;;;15.20;99.90;;;;;;4991570;28;20045;-80
2021/08/26 07:08:30;;;;;;;1.10;0.17;;;15.30;99.90;;;;;;5007472;28;20683;-79
2021/08/26 07:10:57;;;;;;;0.10;0.10;;;15.30;99.90;;;;;;5003257;28;20115;-80
2021/08/26 07:13:24;;;;;;;0.95;0.40;;;15.30;99.90;;;;;;5005111;28;20058;-79
2021/08/26 07:15:51;;;;;;;0.38;0.10;;;15.40;99.90;;;;;;5005269;28;20078;-79
2021/08/26 07:18:19;;;;;;;0.82;0.30;;;15.50;99.90;;;;;;5016995;28;20069;-79
2021/08/26 07:20:46;;;;;;;0.85;0.30;;;15.50;99.90;;;;;;5016036;28;20141;-79
2021/08/26 07:23:13;;;;;;;2.35;0.22;;;15.70;99.90;;;;;;5005056;28;20101;-79
2021/08/26 07:25:40;;;;;;;0.32;0.20;;;15.80;99.90;;;;;;5002088;28;20045;-79
2021/08/26 07:28:07;;;;;;;1.48;0.30;;;15.90;99.90;;;;;;5005994;28;20046;-79
2021/08/26 07:30:35;;;;;;;0.63;0.20;;;16.00;99.90;;;;;;5006922;28;20042;-80
2021/08/26 07:33:02;;;;;;;0.98;0.32;;;16.00;99.90;;;;;;5003825;28;20471;-79
2021/08/26 07:35:29;;;;;;;0.65;0.47;;;15.90;99.90;;;;;;5002382;28;20561;-80
2021/08/26 07:37:56;;;;;;;1.10;0.20;;;15.90;99.90;;;;;;5006797;28;20049;-80
2021/08/26 07:40:24;;;;;;;1.45;0.43;;;15.90;99.90;;;;;;5007192;28;20088;-79
2021/08/26 07:42:51;;;;;;;2.15;0.15;;;15.90;99.90;;;;;;5008491;28;20053;-80
2021/08/26 07:45:18;;;;;;;1.02;0.93;;;15.90;99.90;;;;;;4988737;28;20122;-79
2021/08/26 07:47:45;;;;;;;1.15;0.50;;;15.80;99.90;;;;;;5003829;28;20058;-81
2021/08/26 07:50:12;;;;;;;1.42;0.50;;;15.80;99.90;;;;;;5008183;28;20057;-84
2021/08/26 07:52:39;;;;;;;1.35;0.50;;;15.70;99.90;;;;;;5003243;28;20045;-82
2021/08/26 07:55:07;;;;;;;0.52;0.40;;;15.30;99.90;;;;;;5022718;28;20070;-81
2021/08/26 07:57:34;;;;;;;0.90;0.30;;;15.20;99.90;;;;;;5005275;28;20049;-82
2021/08/26 08:00:01;;;;;;;0.55;0.50;;;15.20;99.90;;;;;;5000946;28;20050;-82
2021/08/26 08:02:30;;;;;;;0.98;0.57;;;15.30;99.90;;;;;;5004782;28;20049;-81
2021/08/26 08:04:57;;;;;;;0.68;0.38;;;15.30;99.90;;;;;;5019175;28;20050;-82
2021/08/26 08:07:24;;;;;;;0.38;0.38;;;15.50;99.90;;;;;;5005501;28;20052;-81
2021/08/26 08:09:52;;;;;;;1.10;0.60;;;15.50;99.90;;;;;;5023397;28;20588;-81
2021/08/26 08:12:19;;;;;;;0.30;0.30;;;15.70;99.90;;;;;;5002774;28;20549;-81
2021/08/26 08:14:46;;;;;;;0.32;0.32;;;15.70;99.90;;;;;;5007822;28;21331;-81
2021/08/26 08:17:13;;;;;;;3.92;0.85;;;15.70;99.90;;;;;;5004763;28;20050;-81
2021/08/26 08:19:40;;;;;;;0.30;0.30;;;15.70;99.90;;;;;;5002128;28;20599;-81
2021/08/26 08:22:07;;;;;;;1.77;0.80;;;15.70;99.90;;;;;;4993017;28;20505;-81
2021/08/26 08:24:34;;;;;;;1.50;0.30;;;15.90;99.90;;;;;;5001722;28;20053;-82
2021/08/26 08:27:01;;;;;;;0.60;0.45;;;16.00;99.90;;;;;;5020013;28;20054;-82
2021/08/26 08:29:28;;;;;;;1.13;0.63;;;16.10;99.90;;;;;;5019274;28;20152;-81
2021/08/26 08:31:55;;;;;;;4.85;0.80;;;16.30;99.90;;;;;;5008280;28;20053;-82
2021/08/26 08:34:22;;;;;;;0.50;0.50;;;16.30;99.90;;;;;;4992117;28;20060;-81
2021/08/26 08:36:49;;;;;;;3.60;0.77;;;16.20;99.90;;;;;;5005332;28;20049;-82
2021/08/26 08:39:16;;;;;;;0.50;0.50;;;16.10;99.90;;;;;;5017087;28;20053;-82
2021/08/26 08:41:45;;;;;;;3.70;0.88;;;16.00;99.90;;;;;;5007079;28;20096;-81
2021/08/26 08:44:12;;;;;;;2.03;0.80;;;15.90;99.90;;;;;;5006986;28;20430;-80
2021/08/26 08:46:40;;;;;;;2.67;0.60;;;15.80;99.90;;;;;;5017761;28;20108;-82
2021/08/26 08:49:09;;;;;;;2.70;0.70;;;15.80;99.90;;;;;;5022807;28;20053;-82
2021/08/26 08:51:36;;;;;;;1.15;1.00;;;15.80;99.90;;;;;;4999207;28;20054;-81
2021/08/26 08:54:03;;;;;;;2.30;0.80;;;15.80;99.90;;;;;;5007959;28;20108;-82
2021/08/26 08:56:30;;;;;;;2.15;0.70;;;15.90;99.90;;;;;;5005716;28;20050;-80
2021/08/26 08:58:58;;;;;;;3.05;1.20;;;15.90;99.90;;;;;;5022514;28;20415;-82
2021/08/26 09:01:26;;;;;;;1.45;0.65;;;16.00;99.90;;;;;;5014741;28;20497;-82
2021/08/26 09:03:53;;;;;;;1.30;0.70;;;16.10;99.90;;;;;;5006564;28;20071;-81
2021/08/26 09:06:20;;;;;;;3.60;0.88;;;16.10;99.90;;;;;;5015718;28;20458;-80
2021/08/26 09:09:08;;;;;;;0.68;0.65;;;16.10;99.90;;;;;;5005387;28;20045;-82
2021/08/26 09:11:36;;;;;;;1.90;1.20;;;16.10;99.90;;;;;;5005239;28;20821;-81
2021/08/26 09:14:12;;;;;;;1.27;0.80;;;16.00;99.90;;;;;;5005082;28;20050;-81
2021/08/26 09:16:43;;;;;;;1.90;0.90;;;15.90;99.90;;;;;;5019495;28;20383;-82
2021/08/26 09:19:31;;;;;;;1.55;1.02;;;15.90;99.90;;;;;;5004420;28;20379;-82
2021/08/26 09:22:03;;;;;;;1.88;1.08;;;15.80;99.90;;;;;;5015475;28;20042;-81
2021/08/26 09:24:52;;;;;;;0.75;0.73;;;15.70;99.90;;;;;;4989229;28;20050;-81
2021/08/26 09:27:31;;;;;;;1.35;1.23;;;15.70;99.90;;;;;;5004724;28;20480;-80
2021/08/26 09:29:59;;;;;;;2.50;1.10;;;15.70;99.90;;;;;;5014826;28;20050;-81
2021/08/26 09:32:41;;;;;;;2.60;1.70;;;15.70;99.90;;;;;;4990244;28;20050;-81
2021/08/26 09:35:20;;;;;;;2.15;1.48;;;15.80;99.90;;;;;;5005348;28;20438;-82
2021/08/26 09:37:49;;;;;;;1.42;1.33;;;15.80;99.90;;;;;;5001525;28;20053;-81
2021/08/26 09:40:29;;;;;;;2.00;1.38;;;15.90;99.90;;;;;;5025264;28;20042;-81
2021/08/26 09:43:06;;;;;;;3.78;1.25;;;15.90;99.90;;;;;;5009693;28;20391;-82
2021/08/26 09:45:37;;;;;;;2.03;1.25;;;15.90;99.90;;;;;;5005484;28;20129;-81
2021/08/26 09:48:09;;;;;;;1.95;1.52;;;16.00;99.90;;;;;;4992863;28;20710;-81
2021/08/26 09:50:46;;;;;;;4.95;2.55;;;16.00;99.90;;;;;;5008298;28;20109;-81
2021/08/26 09:53:33;;;;;;;1.73;1.42;;;16.00;99.90;;;;;;5004985;28;20069;-81
2021/08/26 09:56:03;;;;;;;1.63;1.52;;;16.10;99.90;;;;;;5008170;28;20491;-80
2021/08/26 09:58:34;;;;;;;1.58;1.13;;;16.10;99.90;;;;;;5023054;28;20108;-81
2021/08/26 10:01:16;;;;;;;1.95;1.30;;;16.10;99.90;;;;;;5006718;28;20129;-80
2021/08/26 10:03:44;;;;;;;3.20;1.38;;;16.10;99.90;;;;;;4990230;28;20050;-82
2021/08/26 10:06:12;;;;;;;5.35;1.65;;;16.00;99.90;;;;;;5004859;28;20100;-81
2021/08/26 10:08:41;;;;;;;5.50;2.80;;;15.90;99.90;;;;;;5009149;28;20517;-81
2021/08/26 10:11:10;;;;;;;2.90;1.67;;;15.70;99.90;;;;;;5009472;28;20057;-82
2021/08/26 10:13:38;;;;;;;3.33;1.98;;;15.60;99.90;;;;;;5008832;28;20085;-80
2021/08/26 10:16:05;;;;;;;1.38;1.27;;;15.60;99.90;;;;;;5007817;28;20049;-82
2021/08/26 10:18:35;;;;;;;2.63;1.90;;;15.60;99.90;;;;;;5009456;28;20053;-81
2021/08/26 10:21:06;;;;;;;3.38;1.70;;;15.60;99.90;;;;;;4995567;28;20415;-83
2021/08/26 10:23:35;;;;;;;2.25;1.73;;;15.70;99.90;;;;;;5004843;28;20140;-81
2021/08/26 10:26:05;;;;;;;3.95;1.90;;;15.80;99.90;;;;;;5020648;28;20045;-81
2021/08/26 10:28:35;;;;;;;2.83;1.70;;;15.80;99.90;;;;;;5022366;28;20057;-80
2021/08/26 10:31:23;;;;;;;3.53;2.38;;;15.80;99.90;;;;;;4994922;28;20153;-81
2021/08/26 10:33:51;;;;;;;3.70;2.22;;;15.80;99.90;;;;;;4986051;28;20334;-81
2021/08/26 10:36:19;;;;;;;2.75;2.40;;;15.80;99.90;;;;;;4994708;28;20050;-80
2021/08/26 10:38:46;;;;;;;4.70;2.65;;;15.90;99.90;;;;;;5006820;28;20058;-80
2021/08/26 10:41:19;;;;;;;3.72;2.08;;;16.00;99.90;;;;;;5004195;28;21400;-81
2021/08/26 10:44:06;;;;;;;2.72;1.80;;;16.00;99.90;;;;;;5003792;28;20066;-82
2021/08/26 10:47:01;;;;;;;4.57;2.53;;;16.10;99.90;;;;;;5023323;28;20056;-81
2021/08/26 10:49:28;;;;;;;2.47;1.60;;;16.20;99.90;;;;;;5001315;28;20037;-81
2021/08/26 10:51:55;;;;;;;4.10;1.98;;;16.30;99.90;;;;;;5006216;28;20050;-81
2021/08/26 10:54:32;;;;;;;2.03;1.80;;;16.40;99.90;;;;;;5007056;28;20826;-81
2021/08/26 10:57:24;;;;;;;3.03;1.75;;;16.60;99.90;;;;;;4990597;28;20061;-80
2021/08/26 10:59:51;;;;;;;4.28;1.83;;;16.80;99.90;;;;;;5003893;28;20052;-81
2021/08/26 11:02:41;;;;;;;3.60;1.80;;;16.90;99.90;;;;;;4993244;28;20038;-79
2021/08/26 11:05:35;;;;;;;1.95;1.50;;;17.00;99.90;;;;;;5023849;28;20093;-81
2021/08/26 11:08:31;;;;;;;1.67;1.33;;;17.10;99.90;;;;;;4982695;28;20045;-81
2021/08/26 11:11:30;;;;;;;3.13;2.30;;;17.10;99.90;;;;;;5022523;28;20042;-81
2021/08/26 11:14:03;;;;;;;4.85;1.73;;;16.90;99.90;;;;;;5000126;28;20049;-83
2021/08/26 11:16:36;;;;;;;4.68;1.85;;;16.60;99.90;;;;;;5016476;28;20483;-83
2021/08/26 11:19:12;;;;;;;3.35;2.10;;;16.40;99.90;;;;;;4990996;28;20053;-82
2021/08/26 11:21:42;;;;;;;6.05;2.70;;;16.30;99.90;;;;;;5006003;28;20050;-82
2021/08/26 11:24:23;;;;;;;1.63;1.50;;;16.20;99.90;;;;;;4989470;28;20046;-83
2021/08/26 11:26:51;;;;;;;4.97;2.30;;;16.10;99.90;;;;;;5019950;28;20049;-81
2021/08/26 11:29:34;;;;;;;4.40;2.17;;;16.10;99.90;;;;;;5002380;28;21368;-83
2021/08/26 11:32:09;;;;;;;2.70;2.45;;;16.10;99.90;;;;;;5008108;28;20073;-81
2021/08/26 11:34:48;;;;;;;3.70;2.10;;;16.10;99.90;;;;;;5023521;28;20042;-82
2021/08/26 11:37:21;;;;;;;2.85;1.98;;;16.20;99.90;;;;;;5019302;28;20061;-81
2021/08/26 11:40:02;;;;;;;2.75;1.92;;;16.20;99.90;;;;;;5022962;28;20491;-81
2021/08/26 11:42:35;;;;;;;3.78;2.55;;;16.20;99.90;;;;;;5006713;28;20034;-82
2021/08/26 11:45:14;;;;;;;2.60;2.15;;;16.20;99.90;;;;;;5021812;28;20100;-82
2021/08/26 11:47:53;;;;;;;4.22;2.17;;;16.30;99.90;;;;;;5016533;28;20490;-82
2021/08/26 11:50:21;;;;;;;2.60;2.22;;;16.30;99.90;;;;;;5020918;28;20073;-82
2021/08/26 11:52:53;;;;;;;2.63;2.30;;;16.30;99.90;;;;;;5017772;28;20061;-83
2021/08/26 11:55:39;;;;;;;2.75;2.50;;;16.40;99.90;;;;;;5002474;28;20053;-82
2021/08/26 11:58:09;;;;;;;3.42;2.45;;;16.40;99.90;;;;;;5018669;28;20045;-82
2021/08/26 12:00:41;;;;;;;3.47;2.38;;;16.40;99.90;;;;;;5006649;28;20084;-81
2021/08/26 12:03:09;;;;;;;2.58;1.70;;;16.40;99.90;;;;;;5003311;28;20123;-82
2021/08/26 12:05:41;;;;;;;2.53;2.33;;;16.50;99.90;;;;;;5003246;28;20042;-81
2021/08/26 12:08:10;;;;;;;4.60;3.00;;;16.40;99.90;;;;;;5006005;28;20050;-81
2021/08/26 12:10:44;;;;;;;2.63;1.88;;;16.40;99.90;;;;;;4993311;28;20051;-81
2021/08/26 12:13:15;;;;;;;3.20;2.20;;;16.50;99.90;;;;;;5004766;28;20030;-81
2021/08/26 12:15:43;;;;;;;1.60;1.50;;;16.60;99.90;;;;;;5003720;28;20045;-82
2021/08/26 12:18:16;;;;;;;1.95;1.80;;;16.70;99.90;;;;;;5015350;28;20085;-81
2021/08/26 12:21:05;;;;;;;1.77;1.23;;;16.80;99.90;;;;;;5004782;28;20138;-82
2021/08/26 12:23:40;;;;;;;2.83;2.25;;;16.80;99.90;;;;;;5002101;28;20049;-81
2021/08/26 12:26:10;;;;;;;5.03;2.03;;;16.80;99.90;;;;;;5008664;28;20103;-82
2021/08/26 12:28:41;;;;;;;2.13;1.33;;;16.70;99.90;;;;;;5000538;28;20494;-84
2021/08/26 12:31:11;;;;;;;2.90;1.73;;;16.70;99.90;;;;;;5001962;28;20050;-82
2021/08/26 12:34:12;;;;;;;3.58;1.70;;;16.70;99.90;;;;;;5004688;28;20560;-82
2021/08/26 12:36:42;;;;;;;3.05;1.45;;;16.70;99.90;;;;;;5007746;28;20053;-82
2021/08/26 12:39:27;;;;;;;3.55;1.85;;;16.70;99.90;;;;;;5017683;28;20057;-83
2021/08/26 12:42:16;;;;;;;1.65;1.50;;;16.60;99.90;;;;;;5016761;28;20080;-82
2021/08/26 12:44:45;;;;;;;2.03;1.20;;;16.70;99.90;;;;;;5005903;28;20049;-83
2021/08/26 12:47:28;;;;;;;2.65;1.70;;;16.70;99.90;;;;;;5000614;28;20053;-82
2021/08/26 12:49:56;;;;;;;2.95;2.40;;;16.70;99.90;;;;;;5016706;28;20050;-83
2021/08/26 12:52:36;;;;;;;2.63;2.42;;;16.80;99.90;;;;;;5000120;28;20052;-83
2021/08/26 12:55:07;;;;;;;2.28;1.65;;;16.80;99.90;;;;;;5018968;28;20045;-83
2021/08/26 12:57:35;;;;;;;3.53;1.52;;;17.10;99.90;;;;;;5011370;28;20045;-83
2021/08/26 13:00:03;;;;;;;2.00;1.75;;;17.40;99.90;;;;;;5001525;28;20053;-84
2021/08/26 13:02:30;;;;;;;1.42;1.33;;;17.60;99.90;;;;;;4999968;28;20038;-83
2021/08/26 13:05:07;;;;;;;6.05;2.58;;;17.70;99.90;;;;;;5002937;28;20182;-83
2021/08/26 13:07:34;;;;;;;2.05;1.40;;;17.70;99.90;;;;;;5015280;28;21091;-83
2021/08/26 13:10:07;;;;;;;1.98;1.40;;;17.60;99.90;;;;;;5004596;28;20096;-83